Time;durP1;ratioP1;P1;durP2;ratioP2;P2;SDS_P1;SDS_P2;PMS_P1;PMS_P2;Temp;Humidity;BMP_temperature;BMP_pressure;BME280_temperature;BME280_humidity;BME280_pressure;Samples;Min_cycle;Max_cycle;Signal;HPM_P1;HPM_P2
2022/11/15 00:00:33;;;;;;;25.65;15.32;;;;;;;12.71;100.00;98556.44;5093740;28;20490;-48
2022/11/15 00:02:59;;;;;;;24.30;17.73;;;;;;;12.94;100.00;98555.81;5093635;28;20478;-47
2022/11/15 00:05:25;;;;;;;15.68;13.27;;;;;;;12.98;100.00;98555.16;5093673;28;20024;-48
2022/11/15 00:07:50;;;;;;;20.67;14.05;;;;;;;12.88;100.00;98556.69;5093831;28;20035;-48
2022/11/15 00:10:16;;;;;;;23.27;14.18;;;;;;;12.78;100.00;98555.34;5093530;28;20032;-47
2022/11/15 00:12:42;;;;;;;18.08;13.77;;;;;;;12.70;100.00;98553.00;5093468;28;20028;-46
2022/11/15 00:15:08;;;;;;;20.17;13.27;;;;;;;12.65;100.00;98544.16;5092134;28;20053;-47
2022/11/15 00:17:33;;;;;;;18.65;12.93;;;;;;;12.62;100.00;98542.75;5093437;28;20031;-47
2022/11/15 00:19:59;;;;;;;19.25;13.77;;;;;;;12.62;100.00;98544.59;5092053;28;20016;-47
2022/11/15 00:22:24;;;;;;;17.52;13.30;;;;;;;12.59;100.00;98540.53;5093313;28;20036;-47
2022/11/15 00:24:50;;;;;;;17.73;14.05;;;;;;;12.81;100.00;98537.50;5093142;28;20412;-46
2022/11/15 00:27:15;;;;;;;18.00;13.18;;;;;;;12.92;100.00;98524.44;5093260;28;20464;-46
2022/11/15 00:29:44;;;;;;;19.13;15.27;;;;;;;12.65;100.00;98512.56;5091923;28;20541;-46
2022/11/15 00:32:10;;;;;;;129.18;24.75;;;;;;;12.03;100.00;98520.38;5091687;28;20090;-46
2022/11/15 00:34:36;;;;;;;22.77;17.98;;;;;;;11.74;100.00;98518.09;5093175;28;20024;-46
2022/11/15 00:37:01;;;;;;;21.08;17.70;;;;;;;11.55;100.00;98513.75;5093026;28;20016;-46
2022/11/15 00:39:27;;;;;;;24.30;17.80;;;;;;;11.68;100.00;98518.94;5092964;28;20031;-46
2022/11/15 00:41:52;;;;;;;21.02;15.95;;;;;;;11.67;100.00;98519.97;5092946;28;20020;-46
2022/11/15 00:44:18;;;;;;;22.10;17.60;;;;;;;11.72;100.00;98514.88;5092960;28;20028;-46
2022/11/15 00:46:44;;;;;;;23.23;18.00;;;;;;;11.68;100.00;98513.69;5092794;28;20028;-46
2022/11/15 00:49:09;;;;;;;20.50;15.68;;;;;;;11.78;100.00;98506.13;5092800;28;20028;-47
2022/11/15 00:51:35;;;;;;;19.08;14.45;;;;;;;11.82;100.00;98498.63;5092414;28;20391;-47
2022/11/15 00:54:00;;;;;;;16.10;13.30;;;;;;;11.73;100.00;98500.72;5091447;28;20039;-46
2022/11/15 00:56:26;;;;;;;15.10;12.68;;;;;;;11.67;100.00;98498.94;5091325;28;20051;-47
2022/11/15 00:58:53;;;;;;;18.20;12.65;;;;;;;11.74;100.00;98512.84;5091300;28;20497;-46
2022/11/15 01:01:18;;;;;;;29.10;16.35;;;;;;;11.69;100.00;98501.34;5092632;28;20028;-46
2022/11/15 01:03:44;;;;;;;18.08;12.98;;;;;;;11.57;100.00;98509.13;5092834;28;20038;-46
2022/11/15 01:06:11;;;;;;;21.58;16.55;;;;;;;11.46;100.00;98517.66;5074291;28;20520;-46
2022/11/15 01:08:38;;;;;;;13.73;10.88;;;;;;;11.39;100.00;98518.50;5092485;28;20059;-46
2022/11/15 01:11:07;;;;;;;20.33;14.43;;;;;;;11.34;100.00;98507.78;5092339;28;20020;-46
2022/11/15 01:13:34;;;;;;;20.55;15.27;;;;;;;11.39;100.00;98522.94;5091146;28;20085;-47
2022/11/15 01:16:10;;;;;;;18.70;14.40;;;;;;;11.46;100.00;98509.78;5091017;28;20016;-47
2022/11/15 01:18:36;;;;;;;22.20;14.55;;;;;;;11.50;100.00;98503.06;5092641;28;20137;-47
2022/11/15 01:21:11;;;;;;;20.33;14.63;;;;;;;11.49;100.00;98502.28;5092283;28;20040;-47
2022/11/15 01:23:37;;;;;;;18.83;13.43;;;;;;;11.54;100.00;98497.19;5092072;28;20086;-47
2022/11/15 01:26:05;;;;;;;18.30;13.40;;;;;;;11.65;100.00;98497.53;5092178;28;20735;-47
2022/11/15 01:28:33;;;;;;;17.80;12.88;;;;;;;11.68;100.00;98491.84;5092250;28;20028;-47
2022/11/15 01:31:00;;;;;;;20.77;14.60;;;;;;;11.85;100.00;98489.50;5092037;28;20035;-47
2022/11/15 01:33:26;;;;;;;18.73;14.20;;;;;;;12.05;100.00;98490.19;5092098;28;20043;-47
2022/11/15 01:35:52;;;;;;;18.48;13.48;;;;;;;12.26;100.00;98485.59;5090759;28;20032;-47
2022/11/15 01:38:17;;;;;;;21.23;14.23;;;;;;;12.47;100.00;98484.38;5090718;28;20405;-47
2022/11/15 01:40:43;;;;;;;22.58;14.00;;;;;;;12.65;100.00;98479.13;5092006;28;20026;-47
2022/11/15 01:43:27;;;;;;;14.07;12.02;;;;;;;12.90;100.00;98475.63;5091995;28;20066;-47
2022/11/15 01:46:09;;;;;;;14.05;11.90;;;;;;;13.00;100.00;98470.66;5092207;28;20024;-47
2022/11/15 01:48:37;;;;;;;21.00;12.68;;;;;;;12.72;100.00;98476.44;5090651;28;20118;-47
2022/11/15 01:51:09;;;;;;;19.25;12.60;;;;;;;12.47;100.00;98468.59;5091856;28;20027;-47
2022/11/15 01:53:38;;;;;;;15.55;12.63;;;;;;;12.08;100.00;98465.31;5092195;28;20066;-47
2022/11/15 01:56:09;;;;;;;15.57;13.30;;;;;;;11.92;100.00;98466.63;5090536;28;20093;-46
2022/11/15 01:58:35;;;;;;;23.02;14.18;;;;;;;11.96;100.00;98457.31;5091861;28;20021;-46
2022/11/15 02:01:01;;;;;;;28.15;15.00;;;;;;;12.12;100.00;98442.81;5092055;28;20450;-45
2022/11/15 02:03:38;;;;;;;16.60;11.93;;;;;;;12.20;100.00;98445.16;5093643;28;20113;-45
2022/11/15 02:06:05;;;;;;;12.57;10.50;;;;;;;12.22;100.00;98439.69;5095980;28;20462;-46
2022/11/15 02:08:31;;;;;;;13.13;10.10;;;;;;;12.09;100.00;98435.34;5095912;28;20410;-46
2022/11/15 02:10:56;;;;;;;16.52;11.32;;;;;;;11.98;100.00;98421.06;5095785;28;20020;-46
2022/11/15 02:13:22;;;;;;;20.23;11.15;;;;;;;11.94;100.00;98422.53;5095782;28;20036;-46
2022/11/15 02:16:05;;;;;;;17.52;11.07;;;;;;;11.90;100.00;98421.34;5094452;28;20025;-46
2022/11/15 02:18:51;;;;;;;13.95;9.00;;;;;;;11.84;100.00;98414.28;5094483;28;20036;-46
2022/11/15 02:22:04;;;;;;;9.98;6.97;;;;;;;11.60;100.00;98401.72;5095792;28;20039;-47
2022/11/15 02:24:58;;;;;;;10.10;8.00;;;;;;;11.50;100.00;98388.25;5032898;28;20156;-47
2022/11/15 02:27:29;;;;;;;11.65;8.50;;;;;;;11.55;100.00;98371.81;5024219;28;20046;-47
2022/11/15 02:30:16;;;;;;;7.38;6.40;;;;;;;11.51;100.00;98360.13;5016546;28;20125;-47
2022/11/15 02:33:11;;;;;;;10.65;7.50;;;;;;;11.45;100.00;98348.69;5033031;28;20045;-47
2022/11/15 02:35:58;;;;;;;9.23;6.95;;;;;;;11.47;100.00;98341.38;5025027;28;20045;-48
2022/11/15 02:38:52;;;;;;;10.60;7.47;;;;;;;11.46;100.00;98337.13;5032963;28;20041;-48
2022/11/15 02:41:27;;;;;;;10.52;6.97;;;;;;;11.45;100.00;98318.94;5032928;28;20439;-48
2022/11/15 02:44:12;;;;;;;10.30;7.53;;;;;;;11.54;100.00;98301.91;5016318;28;20041;-48
2022/11/15 02:47:13;;;;;;;9.87;7.27;;;;;;;11.54;100.00;98299.28;5032803;28;20037;-48
2022/11/15 02:49:51;;;;;;;8.93;6.53;;;;;;;11.52;100.00;98310.00;5032826;28;20072;-48
2022/11/15 02:52:27;;;;;;;5.72;4.32;;;;;;;11.45;100.00;98313.69;5032656;28;20041;-48
2022/11/15 02:54:57;;;;;;;8.52;6.35;;;;;;;11.36;100.00;98319.22;5032618;28;20033;-48
2022/11/15 02:58:01;;;;;;;9.25;5.90;;;;;;;11.32;100.00;98318.03;5035213;28;20029;-48
2022/11/15 03:00:33;;;;;;;6.05;4.65;;;;;;;11.40;100.00;98314.34;5095054;28;20031;-48
2022/11/15 03:03:13;;;;;;;5.88;4.90;;;;;;;11.47;100.00;98316.91;5095166;28;20402;-48
2022/11/15 03:05:48;;;;;;;6.00;5.20;;;;;;;11.57;100.00;98319.88;5095134;28;20439;-48
2022/11/15 03:08:28;;;;;;;6.63;5.38;;;;;;;11.72;100.00;98322.16;5094943;28;20051;-48
2022/11/15 03:11:14;;;;;;;10.65;6.22;;;;;;;11.97;100.00;98322.97;5093383;28;20028;-48
2022/11/15 03:13:53;;;;;;;8.32;6.13;;;;;;;12.43;100.00;98326.09;5094711;28;20394;-48
2022/11/15 03:16:39;;;;;;;6.43;5.38;;;;;;;12.82;100.00;98318.72;5094974;28;20448;-48
2022/11/15 03:19:05;;;;;;;13.60;6.95;;;;;;;12.92;100.00;98312.91;5094909;28;20152;-48
2022/11/15 03:21:34;;;;;;;7.20;5.03;;;;;;;13.06;100.00;98316.13;5093276;28;20505;-48
2022/11/15 03:24:05;;;;;;;7.28;4.78;;;;;;;13.08;100.00;98314.09;5094403;28;20179;-48
2022/11/15 03:26:33;;;;;;;6.00;4.57;;;;;;;13.11;100.00;98311.00;5094491;28;20077;-48
2022/11/15 03:29:04;;;;;;;17.00;4.57;;;;;;;13.11;100.00;98308.38;5094415;28;20024;-48
2022/11/15 03:31:48;;;;;;;7.90;4.80;;;;;;;13.28;100.00;98305.88;5093129;28;20053;-48
2022/11/15 03:34:24;;;;;;;5.45;4.32;;;;;;;13.58;100.00;98297.91;5094428;28;20020;-48
2022/11/15 03:36:51;;;;;;;5.25;3.58;;;;;;;13.65;100.00;98295.97;5094272;28;20102;-48
2022/11/15 03:39:18;;;;;;;5.47;3.75;;;;;;;13.66;100.00;98294.13;5093262;28;20448;-48
2022/11/15 03:42:05;;;;;;;16.27;4.85;;;;;;;13.65;100.00;98303.09;5094133;28;20058;-48
2022/11/15 03:45:00;;;;;;;10.55;4.20;;;;;;;13.79;100.00;98307.09;5094067;28;20036;-48
2022/11/15 03:47:38;;;;;;;8.68;4.47;;;;;;;13.83;100.00;98308.22;5094160;28;20077;-48
2022/11/15 03:50:12;;;;;;;10.77;4.32;;;;;;;13.70;100.00;98297.91;5094053;28;20493;-48
2022/11/15 03:52:40;;;;;;;6.22;4.13;;;;;;;13.45;100.00;98303.41;5093970;28;20022;-48
2022/11/15 03:55:09;;;;;;;8.95;4.70;;;;;;;13.21;100.00;98292.81;5092608;28;20115;-48
2022/11/15 03:57:34;;;;;;;8.57;5.13;;;;;;;13.25;100.00;98285.25;5094147;28;20050;-48
2022/11/15 04:00:00;;;;;;;9.48;4.68;;;;;;;13.34;100.00;98290.00;5092537;28;20028;-48
2022/11/15 04:02:25;;;;;;;9.32;4.50;;;;;;;13.57;100.00;98283.13;5094129;28;20082;-48
2022/11/15 04:04:51;;;;;;;5.82;4.13;;;;;;;13.36;100.00;98281.84;5092469;28;20446;-48
2022/11/15 04:07:17;;;;;;;6.13;4.55;;;;;;;13.07;100.00;98288.78;5093726;28;20027;-48
2022/11/15 04:12:32;;;;;;;6.05;4.63;;;;;;;12.71;100.00;98286.03;5093628;28;20058;-48
2022/11/15 04:15:08;;;;;;;13.15;4.93;;;;;;;12.90;100.00;98286.81;5092285;28;20036;-47
2022/11/15 04:17:40;;;;;;;12.57;5.25;;;;;;;13.14;100.00;98281.59;5093530;28;20055;-48
2022/11/15 04:25:49;;;;;;;10.75;5.05;;;;;;;12.93;100.00;98264.47;5092771;28;20055;-48
2022/11/15 04:28:14;;;;;;;5.53;4.60;;;;;;;12.84;100.00;98263.16;5093294;28;20103;-48
2022/11/15 04:30:40;;;;;;;7.13;5.53;;;;;;;12.97;100.00;98252.44;5093091;28;20166;-48
2022/11/15 04:33:06;;;;;;;6.30;5.53;;;;;;;12.94;100.00;98253.72;5092024;28;20031;-48
2022/11/15 04:35:31;;;;;;;7.72;5.85;;;;;;;12.81;100.00;98255.75;5091831;28;20038;-48
2022/11/15 04:37:58;;;;;;;10.07;6.13;;;;;;;12.64;100.00;98258.22;5093019;28;20043;-48
2022/11/15 04:40:24;;;;;;;14.77;6.57;;;;;;;12.54;100.00;98259.53;5091732;28;20101;-48
2022/11/15 04:42:49;;;;;;;10.05;6.30;;;;;;;12.49;100.00;98258.59;5092008;28;20056;-48
2022/11/15 04:45:15;;;;;;;9.75;7.70;;;;;;;12.49;100.00;98255.97;5091661;28;20502;-48
2022/11/15 04:47:44;;;;;;;7.40;5.75;;;;;;;12.56;100.00;98254.06;5092866;28;20101;-48
2022/11/15 04:50:13;;;;;;;11.27;5.90;;;;;;;12.74;100.00;98263.75;5092856;28;20024;-48
2022/11/15 04:52:49;;;;;;;9.98;6.80;;;;;;;12.74;100.00;98264.53;5092942;28;20028;-48
2022/11/15 04:55:15;;;;;;;7.32;5.28;;;;;;;12.68;100.00;98257.53;5092818;28;20046;-48
2022/11/15 04:57:41;;;;;;;14.00;5.65;;;;;;;12.71;100.00;98251.81;5092721;28;20486;-48
2022/11/15 05:00:09;;;;;;;8.98;5.72;;;;;;;12.64;100.00;98243.22;5092655;28;20804;-48
2022/11/15 05:05:23;;;;;;;15.27;5.13;;;;;;;12.65;100.00;98236.91;5092891;28;20575;-48
2022/11/15 05:07:49;;;;;;;6.78;6.07;;;;;;;12.77;100.00;98236.94;5092520;28;20030;-48
2022/11/15 05:10:14;;;;;;;9.63;5.78;;;;;;;12.65;100.00;98233.47;5092770;28;20024;-48
2022/11/15 05:12:40;;;;;;;14.13;5.85;;;;;;;12.46;100.00;98230.91;5091090;28;20024;-48
2022/11/15 05:15:06;;;;;;;9.15;5.43;;;;;;;12.34;100.00;98235.31;5091171;28;20057;-48
2022/11/15 05:17:32;;;;;;;8.45;5.70;;;;;;;12.26;100.00;98233.00;5091104;28;20042;-48
2022/11/15 05:19:57;;;;;;;10.93;6.68;;;;;;;12.19;100.00;98230.44;5092645;28;20032;-48
2022/11/15 05:22:23;;;;;;;7.18;6.20;;;;;;;12.11;100.00;98223.69;5091001;28;20078;-48
2022/11/15 05:24:48;;;;;;;11.10;6.20;;;;;;;12.07;100.00;98214.59;5092017;28;20047;-48
2022/11/15 05:27:14;;;;;;;13.05;6.45;;;;;;;12.18;100.00;98213.06;5090956;28;20065;-48
2022/11/15 05:29:39;;;;;;;7.85;5.95;;;;;;;12.61;100.00;98200.75;5090922;28;20517;-48
2022/11/15 05:32:06;;;;;;;6.97;4.88;;;;;;;13.02;100.00;98199.06;5092058;28;20031;-48
2022/11/15 05:34:32;;;;;;;7.80;5.75;;;;;;;13.13;100.00;98190.38;5092377;28;20020;-48
2022/11/15 05:36:59;;;;;;;13.10;5.57;;;;;;;13.23;100.00;98206.44;5091663;28;20401;-48
2022/11/15 05:39:25;;;;;;;11.60;5.18;;;;;;;13.27;100.00;98202.31;5091716;28;20024;-48
2022/11/15 05:42:01;;;;;;;8.07;6.53;;;;;;;13.26;100.00;98213.88;5091898;28;20031;-48
2022/11/15 05:44:27;;;;;;;11.93;5.95;;;;;;;13.12;100.00;98210.69;5092089;28;20116;-48
2022/11/15 05:46:56;;;;;;;12.73;6.40;;;;;;;13.10;100.00;98219.81;5092238;28;20032;-48
2022/11/15 05:49:27;;;;;;;25.25;8.35;;;;;;;12.97;100.00;98219.00;5092156;28;20024;-47
2022/11/15 05:51:53;;;;;;;6.82;5.60;;;;;;;12.83;100.00;98222.88;5090601;28;20447;-48
2022/11/15 05:54:21;;;;;;;13.70;6.20;;;;;;;12.68;100.00;98227.78;5090555;28;20027;-48
2022/11/15 05:56:46;;;;;;;11.10;5.70;;;;;;;12.61;100.00;98227.84;5090497;28;20536;-48
2022/11/15 05:59:13;;;;;;;11.52;6.25;;;;;;;12.54;100.00;98219.28;5090615;28;20123;-48
2022/11/15 06:01:39;;;;;;;12.88;5.60;;;;;;;12.50;100.00;98224.16;5091781;28;20050;-48
2022/11/15 06:04:05;;;;;;;7.53;6.10;;;;;;;12.42;100.00;98215.81;5090447;28;20077;-48
2022/11/15 06:06:30;;;;;;;13.98;6.38;;;;;;;12.28;100.00;98223.06;5090471;28;20435;-48
2022/11/15 06:08:56;;;;;;;11.00;7.88;;;;;;;12.16;100.00;98217.75;5091750;28;20043;-48
2022/11/15 06:11:21;;;;;;;13.15;6.18;;;;;;;12.05;100.00;98226.38;5091650;28;20035;-48
2022/11/15 06:13:47;;;;;;;9.38;6.40;;;;;;;11.99;100.00;98218.34;5091712;28;20099;-48
2022/11/15 06:16:12;;;;;;;8.20;6.65;;;;;;;11.98;100.00;98214.09;5090357;28;20051;-47
2022/11/15 06:18:38;;;;;;;12.07;6.88;;;;;;;12.07;100.00;98214.59;5090355;28;20131;-48
2022/11/15 06:21:05;;;;;;;11.55;7.10;;;;;;;12.24;100.00;98211.38;5090359;28;20116;-48
2022/11/15 06:23:35;;;;;;;13.55;6.40;;;;;;;12.24;100.00;98201.66;5091425;28;20047;-48
2022/11/15 06:26:02;;;;;;;6.32;5.35;;;;;;;12.51;100.00;98196.00;5091616;28;20043;-48
2022/11/15 06:28:30;;;;;;;13.63;6.05;;;;;;;12.66;100.00;98198.25;5091557;28;20056;-48
2022/11/15 06:30:56;;;;;;;11.75;6.15;;;;;;;12.69;100.00;98195.16;5091377;28;20513;-48
2022/11/15 06:33:22;;;;;;;11.30;7.30;;;;;;;12.52;100.00;98193.16;5090239;28;20031;-48
2022/11/15 06:35:48;;;;;;;10.13;6.60;;;;;;;12.51;100.00;98188.13;5090160;28;20013;-48
2022/11/15 06:38:13;;;;;;;13.20;7.10;;;;;;;12.57;100.00;98189.84;5091746;28;20024;-47
2022/11/15 06:40:39;;;;;;;9.88;6.03;;;;;;;12.59;100.00;98190.44;5091473;28;20502;-48
2022/11/15 06:43:06;;;;;;;8.60;6.88;;;;;;;12.57;100.00;98185.38;5091364;28;20052;-48
2022/11/15 06:45:32;;;;;;;10.25;6.65;;;;;;;12.45;100.00;98187.19;5091337;28;20074;-48
2022/11/15 06:48:01;;;;;;;11.55;6.22;;;;;;;12.47;100.00;98194.84;5091324;28;20032;-48
2022/11/15 06:50:26;;;;;;;6.75;5.78;;;;;;;12.48;100.00;98194.63;5093255;28;20027;-48
2022/11/15 06:52:52;;;;;;;8.23;5.82;;;;;;;12.53;100.00;98202.66;5093766;28;20110;-48
2022/11/15 06:55:18;;;;;;;9.15;6.18;;;;;;;12.65;100.00;98201.88;5094978;28;20016;-48
2022/11/15 06:57:48;;;;;;;9.88;5.80;;;;;;;12.97;100.00;98205.03;5093780;28;20028;-48
2022/11/15 07:00:15;;;;;;;18.25;7.28;;;;;;;13.26;100.00;98200.72;5095002;28;20044;-48
2022/11/15 07:02:40;;;;;;;13.00;5.90;;;;;;;13.36;100.00;98206.25;5094902;28;20518;-48
2022/11/15 07:05:06;;;;;;;10.60;5.80;;;;;;;13.43;100.00;98202.69;5093619;28;20046;-48
2022/11/15 07:07:32;;;;;;;18.88;6.00;;;;;;;13.44;100.00;98199.81;5094818;28;20028;-48
2022/11/15 07:09:58;;;;;;;10.63;6.72;;;;;;;13.39;100.00;98195.22;5094866;28;20016;-48
2022/11/15 07:12:23;;;;;;;11.98;7.82;;;;;;;13.13;100.00;98196.47;5094702;28;20027;-48
2022/11/15 07:14:49;;;;;;;24.30;8.73;;;;;;;12.81;99.73;98185.44;5094740;28;20020;-48
2022/11/15 07:17:14;;;;;;;9.88;7.60;;;;;;;12.70;100.00;98188.88;5094653;28;20032;-48
2022/11/15 07:19:40;;;;;;;9.00;7.32;;;;;;;12.61;100.00;98183.09;5093289;28;20492;-48
2022/11/15 07:22:06;;;;;;;20.55;7.53;;;;;;;12.55;100.00;98181.38;5094584;28;20027;-48
2022/11/15 07:24:31;;;;;;;7.90;6.80;;;;;;;12.53;100.00;98181.59;5092930;28;20051;-48
2022/11/15 07:26:57;;;;;;;10.98;7.07;;;;;;;12.67;100.00;98176.94;5093259;28;20044;-48
2022/11/15 07:29:22;;;;;;;17.67;6.97;;;;;;;12.98;100.00;98178.47;5094471;28;20020;-48
2022/11/15 07:31:50;;;;;;;13.48;8.30;;;;;;;13.15;100.00;98178.59;5094298;28;20031;-48
2022/11/15 07:34:16;;;;;;;15.10;7.63;;;;;;;13.01;100.00;98181.69;5094333;28;20107;-48
2022/11/15 07:36:42;;;;;;;12.15;8.05;;;;;;;12.82;100.00;98184.41;5076139;28;20024;-48
2022/11/15 07:39:07;;;;;;;13.30;7.15;;;;;;;12.85;100.00;98191.84;5094248;28;20085;-48
2022/11/15 07:41:33;;;;;;;9.55;5.90;;;;;;;12.87;100.00;98204.78;5094499;28;20082;-48
2022/11/15 07:43:59;;;;;;;7.03;6.07;;;;;;;12.75;100.00;98199.50;5094519;28;20438;-48
2022/11/15 07:46:24;;;;;;;7.38;6.65;;;;;;;12.54;100.00;98188.47;5092782;28;20119;-48
2022/11/15 07:48:50;;;;;;;20.50;7.20;;;;;;;12.47;100.00;98203.56;5094065;28;20509;-48
2022/11/15 07:51:16;;;;;;;11.73;7.05;;;;;;;12.46;100.00;98198.53;5094224;28;20039;-48
2022/11/15 07:53:44;;;;;;;8.85;6.47;;;;;;;12.40;100.00;98192.34;5093984;28;20028;-48
2022/11/15 07:56:10;;;;;;;6.75;5.47;;;;;;;12.31;100.00;98188.41;5092603;28;20110;-48
2022/11/15 07:58:36;;;;;;;7.80;6.20;;;;;;;12.24;100.00;98188.50;5092536;28;20054;-48
2022/11/15 08:01:06;;;;;;;8.18;5.72;;;;;;;12.25;100.00;98187.47;5091526;28;20476;-48
2022/11/15 08:03:33;;;;;;;8.48;6.32;;;;;;;12.24;100.00;98188.50;5094041;28;20028;-48
2022/11/15 08:05:58;;;;;;;11.85;6.53;;;;;;;12.26;100.00;98185.66;5092404;28;20058;-48
2022/11/15 08:08:24;;;;;;;11.35;6.82;;;;;;;12.39;100.00;98177.56;5092409;28;20115;-48
2022/11/15 08:10:50;;;;;;;7.82;6.88;;;;;;;12.49;100.00;98169.91;5093505;28;20108;-48
2022/11/15 08:13:16;;;;;;;10.05;7.78;;;;;;;12.49;100.00;98155.97;5093533;28;20027;-48
2022/11/15 08:15:43;;;;;;;8.40;6.55;;;;;;;12.45;99.98;98158.22;5075400;28;20047;-48
2022/11/15 08:18:12;;;;;;;7.55;5.93;;;;;;;12.54;100.00;98164.78;5092569;28;20398;-48
2022/11/15 08:20:38;;;;;;;5.72;3.95;;;;;;;12.62;98.60;98168.13;5092031;28;20406;-48
2022/11/15 08:23:05;;;;;;;9.75;5.30;;;;;;;12.65;98.26;98167.66;5093203;28;20032;-49
2022/11/15 08:25:33;;;;;;;5.90;3.92;;;;;;;12.82;99.73;98173.88;5092012;28;20021;-48
2022/11/15 08:28:07;;;;;;;8.35;3.97;;;;;;;13.04;100.00;98173.31;5091982;28;20028;-48
2022/11/15 08:30:41;;;;;;;8.45;3.83;;;;;;;13.19;100.00;98171.81;5091959;28;20082;-48
2022/11/15 08:33:10;;;;;;;7.70;3.90;;;;;;;13.33;100.00;98174.25;5093243;28;20101;-48
2022/11/15 08:35:36;;;;;;;7.60;3.88;;;;;;;13.49;100.00;98172.75;5093161;28;20016;-48
2022/11/15 08:38:02;;;;;;;5.32;4.18;;;;;;;13.62;100.00;98172.50;5093123;28;20035;-48
2022/11/15 08:40:27;;;;;;;9.80;4.53;;;;;;;13.79;100.00;98164.66;5091708;28;20088;-48
2022/11/15 08:42:53;;;;;;;7.78;4.32;;;;;;;13.95;100.00;98165.78;5091747;28;20077;-48
2022/11/15 08:45:19;;;;;;;6.60;4.15;;;;;;;14.09;100.00;98175.00;5091656;28;20119;-48
2022/11/15 08:47:45;;;;;;;10.40;5.72;;;;;;;14.25;100.00;98167.38;5092882;28;20556;-48
2022/11/15 08:50:10;;;;;;;11.35;6.15;;;;;;;14.31;99.95;98159.31;5092932;28;20024;-48
2022/11/15 08:52:36;;;;;;;14.18;6.90;;;;;;;14.30;99.65;98160.31;5091493;28;20055;-48
2022/11/15 08:55:02;;;;;;;5.93;3.90;;;;;;;14.34;99.75;98158.81;5091583;28;20028;-48
2022/11/15 08:57:31;;;;;;;9.80;4.28;;;;;;;14.34;99.45;98140.34;5074976;28;20036;-48
2022/11/15 08:59:57;;;;;;;4.40;2.65;;;;;;;14.25;95.62;98149.69;5092796;28;20024;-48
2022/11/15 09:02:23;;;;;;;6.65;2.65;;;;;;;14.28;95.06;98151.84;5092705;28;20024;-48
2022/11/15 09:04:48;;;;;;;6.82;3.17;;;;;;;14.19;92.98;98148.81;5091431;28;20115;-48
2022/11/15 09:07:15;;;;;;;6.75;4.32;;;;;;;14.31;95.51;98145.31;5091267;28;20093;-48
2022/11/15 09:09:41;;;;;;;7.43;4.72;;;;;;;14.34;95.94;98140.34;5092553;28;20016;-48
2022/11/15 09:12:07;;;;;;;10.73;4.32;;;;;;;14.35;96.12;98133.25;5092253;28;20111;-48
2022/11/15 09:14:33;;;;;;;9.40;5.55;;;;;;;14.31;95.99;98134.75;5092452;28;20027;-48
2022/11/15 09:16:59;;;;;;;8.18;5.32;;;;;;;14.26;95.75;98134.66;5092359;28;20031;-48
2022/11/15 09:19:25;;;;;;;10.25;4.30;;;;;;;14.26;96.07;98138.09;5092408;28;20406;-48
2022/11/15 09:21:51;;;;;;;5.80;4.38;;;;;;;14.29;95.71;98134.19;5092303;28;20082;-48
2022/11/15 09:24:17;;;;;;;7.05;4.30;;;;;;;14.31;94.33;98129.47;5090683;28;20055;-48
2022/11/15 09:26:43;;;;;;;12.40;4.20;;;;;;;14.34;93.53;98129.78;5074136;28;20016;-48
2022/11/15 09:29:09;;;;;;;12.57;4.22;;;;;;;14.34;94.02;98129.78;5092277;28;20023;-48
2022/11/15 09:31:35;;;;;;;8.07;4.00;;;;;;;14.38;94.04;98122.19;5090880;28;20394;-48
2022/11/15 09:34:01;;;;;;;6.13;5.18;;;;;;;14.42;93.62;98125.94;5092184;28;20162;-48
2022/11/15 09:36:26;;;;;;;4.70;3.83;;;;;;;14.48;93.43;98116.28;5092087;28;20479;-48
2022/11/15 09:38:52;;;;;;;7.53;4.50;;;;;;;14.56;93.40;98121.19;5092100;28;20024;-48
2022/11/15 09:41:33;;;;;;;11.65;6.38;;;;;;;14.57;94.31;98118.31;5090714;28;20024;-48
2022/11/15 09:44:34;;;;;;;8.93;5.13;;;;;;;14.56;92.55;98124.63;5092094;28;20028;-48
2022/11/15 09:47:06;;;;;;;10.07;3.78;;;;;;;14.54;92.26;98120.59;5090861;28;20027;-48
2022/11/15 09:49:32;;;;;;;8.20;4.63;;;;;;;14.53;92.19;98116.38;5091975;28;20109;-48
2022/11/15 09:51:58;;;;;;;7.13;4.47;;;;;;;14.53;89.87;98111.88;5090493;28;20024;-48
2022/11/15 09:54:33;;;;;;;8.52;4.10;;;;;;;14.54;91.51;98117.97;5090629;28;20535;-48
2022/11/15 09:57:05;;;;;;;;;;;;;;;14.65;92.48;98119.75;5092248;28;20025;-48
2022/11/15 10:00:08;;;;;;;9.32;3.83;;;;;;;14.71;92.96;98110.09;5090546;28;19941;-48
2022/11/15 10:02:39;;;;;;;6.82;3.75;;;;;;;14.68;90.78;98108.69;5091845;28;20446;-48
2022/11/15 10:05:10;;;;;;;6.80;3.90;;;;;;;14.68;91.24;98100.78;5090516;28;20024;-48
2022/11/15 10:07:55;;;;;;;6.18;3.30;;;;;;;14.68;89.64;98102.63;5091841;28;20028;-48
2022/11/15 10:10:58;;;;;;;8.43;3.67;;;;;;;14.83;91.65;98105.50;5091801;28;20024;-48
2022/11/15 10:13:29;;;;;;;6.32;4.40;;;;;;;14.90;91.84;98106.13;5077509;28;20806;-48
2022/11/15 10:16:07;;;;;;;5.88;3.15;;;;;;;14.94;92.25;98104.59;5091751;28;20103;-48
2022/11/15 10:19:01;;;;;;;5.88;4.00;;;;;;;15.02;91.61;98103.38;5090426;28;20028;-48
2022/11/15 10:21:40;;;;;;;10.95;4.30;;;;;;;15.23;91.86;98093.91;5091625;28;20089;-48
2022/11/15 10:24:15;;;;;;;10.32;4.15;;;;;;;15.44;93.24;98091.50;5092644;28;20051;-48
2022/11/15 10:26:47;;;;;;;8.18;3.35;;;;;;;15.71;94.18;98089.69;5095670;28;20028;-48
2022/11/15 10:29:19;;;;;;;3.72;2.97;;;;;;;15.88;92.95;98080.91;5095761;28;20036;-48
2022/11/15 10:31:44;;;;;;;32.83;29.80;;;;;;;15.95;91.13;98079.63;5095449;28;20038;-48
2022/11/15 10:34:22;;;;;;;14.93;7.95;;;;;;;15.90;90.29;98074.31;5094232;28;20040;-48
2022/11/15 10:36:56;;;;;;;16.52;5.22;;;;;;;15.98;90.95;98065.91;5095494;28;20047;-48
2022/11/15 10:39:22;;;;;;;12.90;3.72;;;;;;;16.08;90.83;98062.56;5095409;28;20103;-48
2022/11/15 10:41:48;;;;;;;6.68;3.85;;;;;;;15.94;85.68;98058.75;5094088;28;20170;-48
2022/11/15 10:44:16;;;;;;;7.60;3.88;;;;;;;15.74;85.78;98049.53;5094022;28;20027;-48
2022/11/15 10:46:48;;;;;;;4.88;3.15;;;;;;;15.76;86.98;98046.66;5095295;28;20035;-48
2022/11/15 10:49:21;;;;;;;6.43;2.90;;;;;;;15.80;85.21;98039.03;5095504;28;20032;-48
2022/11/15 10:51:57;;;;;;;9.57;3.47;;;;;;;15.75;83.54;98037.09;5095469;28;20020;-48
2022/11/15 10:54:44;;;;;;;11.77;6.25;;;;;;;15.72;84.70;98022.53;5095462;28;20027;-48
2022/11/15 10:57:19;;;;;;;7.25;3.78;;;;;;;15.72;82.12;98021.72;5095120;28;20019;-48
2022/11/15 10:59:53;;;;;;;8.70;3.47;;;;;;;15.71;82.59;98018.25;5095095;28;20065;-48
2022/11/15 11:02:56;;;;;;;7.40;2.97;;;;;;;15.73;82.02;98020.69;5095044;28;20024;-48
2022/11/15 11:05:37;;;;;;;5.18;2.90;;;;;;;15.82;82.80;98003.31;5094970;28;20060;-48
2022/11/15 11:08:15;;;;;;;8.20;3.10;;;;;;;15.79;81.40;98011.75;5094933;28;20017;-48
2022/11/15 11:11:01;;;;;;;4.68;2.40;;;;;;;15.75;83.08;98006.19;5093555;28;20512;-48
2022/11/15 11:13:38;;;;;;;3.17;2.15;;;;;;;15.75;83.55;98003.53;5094883;28;20073;-48
2022/11/15 11:16:13;;;;;;;3.90;3.05;;;;;;;15.81;83.33;98004.34;5093514;28;20062;-48
2022/11/15 11:18:55;;;;;;;3.13;2.60;;;;;;;15.87;81.40;97995.41;5093663;28;20581;-48
2022/11/15 11:21:41;;;;;;;3.72;2.80;;;;;;;15.82;82.57;97991.94;5093313;28;20040;-48
2022/11/15 11:24:30;;;;;;;6.25;3.28;;;;;;;15.79;81.37;97987.94;5094431;28;20126;-48
2022/11/15 11:27:44;;;;;;;5.60;2.42;;;;;;;15.81;78.20;97977.91;5094537;28;20032;-48
2022/11/15 11:30:20;;;;;;;7.38;3.53;;;;;;;15.80;79.53;97972.88;5069566;28;20119;-48
2022/11/15 11:33:17;;;;;;;4.03;2.20;;;;;;;15.80;79.57;97975.53;5094435;28;20028;-48
2022/11/15 11:35:45;;;;;;;5.80;3.70;;;;;;;15.97;82.17;97971.69;5093011;28;20076;-48
2022/11/15 11:38:32;;;;;;;3.90;2.85;;;;;;;16.14;80.04;97960.97;5093014;28;20150;-48
2022/11/15 11:41:27;;;;;;;5.68;2.50;;;;;;;16.27;78.84;97962.38;5092934;28;20107;-48
2022/11/15 11:44:32;;;;;;;3.47;2.58;;;;;;;16.49;81.87;97967.53;5085440;28;20598;-48
2022/11/15 11:47:33;;;;;;;6.90;4.00;;;;;;;16.55;82.75;97981.63;5061854;28;20036;-48
2022/11/15 11:50:14;;;;;;;3.33;2.40;;;;;;;16.90;84.29;97969.63;5094002;28;20241;-48